Angelica, NY

12:14 AM EDT on May 23, 2015 (GMT -0400)
Sunset Bay Rushford Lake | | Change Station
CLOSE
Current Station
Personal Weather Station
Location: Caneadea, NY
Elevation: 1490 ft
Nearby Weather Stations
Active Advisory: Freeze Warning

Elev 1490 ft 42.39 °N, 78.19 °W | Updated 5 minutes ago

Clear
Clear
38.8 °F
Feels Like 39 °F
N
0.0
Wind Variable Wind from NE

Today
High -- | Low -- °F
--% Chance of Precip.
Yesterday
High -- | Low -- °F
Precip. -- in
5:43 AM 8:34 PM
Waxing Crescent, 26% visible
Pressure 30.28 in
Visibility 10.0 miles
Clouds Clear
Windchill 39 °F
Dew Point 28 °F
Humidity 64%
Rainfall 0.00 in
Snow Depth Not available.
UV 0 out of 12
Pollen 8.80 out of 12
Air Quality Not available.
Flu Activity Widespread
METAR KELZ 230356Z AUTO 33007KT 10SM CLR 05/M07 A3026 RMK AO2 SLP253 T00501067

More Conditions Fewer Conditions

Pressure 30.28 in
Visibility 10.0 miles
Clouds Clear
Windchill 39 °F
Dew Point 28 °F
Humidity 64%
Rainfall 0.00 in
Snow Depth Not available.
UV 0 out of 12
Pollen 8.80 out of 12
Air Quality Not available.
Flu Activity Widespread
METAR KELZ 230356Z AUTO 33007KT 10SM CLR 05/M07 A3026 RMK AO2 SLP253 T00501067

More Conditions Fewer Conditions

10-Day Weather Forecast

Almanac

Astronomy

May. 23, 2015 Rise Set
Actual Time
Civil Twilight
Nautical Twilight
Astronomical Twilight
Moon
Length of Visible Light
Length of Day
Tomorrow will be .
, % of the Moon is Illuminated

Today's Extremes

State Highs State Lows

Community

WunderPhotos

Upload Photos

1,823,392 photos uploaded!

WunderBlogs® & News

Nearby

Air Quality

  Air Quality AQ Index Pollutant
Not available.

Snow Depth

Station Depth Elevation

Earthquake Activity

City Distance Mag. Time & Date
Minimum magnitude displayed is 2.5.

Coastal Water Temperatures

Place Temperature

Stations

Nearby Weather Stations

Station Location Temp. Windchill Dew Point Humidity Wind Precip. Elev Updated Type
                   
Freeze Warning
Statement as of 10:48 PM EDT on May 22, 2015

... Freeze warning remains in effect until 9 am EDT Saturday...

* locations... Wyoming... Livingston... Cattaraugus... and Allegany
counties... and portions of southern Erie and Chautauqua
counties away from the immediate Lake Erie shoreline.

* Timing... from midnight tonight through late Saturday morning.

* Temperatures... around 30.

* Impacts... such temperatures will result in damage to tender
vegetation unless protective measures are taken.

Precautionary/preparedness actions...

A freeze warning is issued when freezing temperatures are
forecast to threaten outdoor plants. If you are in the warned
area you should protect tender vegetation. Also... potted plants
normally left outdoors should be covered or brought inside away
from the cold. Stay tuned to weather radio or other radio and TV
stations for further details or updates.